Time;durP1;ratioP1;P1;durP2;ratioP2;P2;SDS_P1;SDS_P2;PMS_P1;PMS_P2;Temp;Humidity;BMP_temperature;BMP_pressure;BME280_temperature;BME280_humidity;BME280_pressure;Samples;Min_cycle;Max_cycle;Signal;HPM_P1;HPM_P2
2022/12/26 00:04:05;;;;;;;28.27;22.65;;;10.20;87.40;;;;;;10848883;32;20067;-73
2022/12/26 00:10:08;;;;;;;34.80;25.02;;;10.20;87.40;;;;;;10866434;32;20054;-74
2022/12/26 00:16:12;;;;;;;42.92;34.55;;;10.20;87.40;;;;;;10852951;32;20031;-73
2022/12/26 00:22:14;;;;;;;39.28;33.90;;;10.20;87.50;;;;;;10498607;27;11991063;-73
2022/12/26 00:28:16;;;;;;;37.90;28.62;;;10.20;87.60;;;;;;10825941;33;20390;-73
2022/12/26 00:34:18;;;;;;;33.05;24.30;;;10.20;87.60;;;;;;10825993;33;20386;-74
2022/12/26 00:40:20;;;;;;;31.75;24.75;;;10.20;87.60;;;;;;10808447;33;20085;-73
2022/12/26 00:46:23;;;;;;;32.40;24.80;;;10.20;87.50;;;;;;10824601;32;20085;-73
2022/12/26 00:52:25;;;;;;;38.92;32.22;;;10.20;87.50;;;;;;10904574;32;20046;-73
2022/12/26 00:58:27;;;;;;;27.40;22.08;;;10.20;87.50;;;;;;10908978;32;20015;-73
2022/12/26 01:04:29;;;;;;;34.47;27.55;;;10.20;87.40;;;;;;10909673;32;20353;-73
2022/12/26 01:10:31;;;;;;;32.10;26.87;;;10.20;87.50;;;;;;10908116;32;20035;-73
2022/12/26 01:16:33;;;;;;;34.30;21.85;;;10.20;87.60;;;;;;10909277;32;20333;-73
2022/12/26 01:22:36;;;;;;;27.17;21.65;;;10.20;87.50;;;;;;10908239;32;20015;-73
2022/12/26 01:28:38;;;;;;;33.55;25.90;;;10.10;87.50;;;;;;10908006;32;20027;-73
2022/12/26 01:34:40;;;;;;;26.73;20.83;;;10.20;87.60;;;;;;10908629;32;20055;-74
2022/12/26 01:40:43;;;;;;;29.37;24.27;;;10.20;87.50;;;;;;10908374;32;20042;-74
2022/12/26 01:46:45;;;;;;;32.20;28.33;;;10.20;87.60;;;;;;10906724;32;20027;-73
2022/12/26 01:52:48;;;;;;;27.45;22.10;;;10.20;87.60;;;;;;10907031;32;20016;-74
2022/12/26 01:59:14;;;;;;;24.95;20.85;;;10.20;87.50;;;;;;10893824;32;20374;-73
2022/12/26 02:05:32;;;;;;;38.13;28.45;;;10.20;87.50;;;;;;10894180;32;20027;-73
2022/12/26 02:11:39;;;;;;;33.17;25.48;;;10.20;87.50;;;;;;10903365;32;20034;-73
2022/12/26 02:17:42;;;;;;;38.50;30.37;;;10.20;87.60;;;;;;10906974;32;20046;-75
2022/12/26 02:24:19;;;;;;;37.90;29.75;;;10.20;87.60;;;;;;10906858;32;20420;-75
2022/12/26 02:30:36;;;;;;;29.95;24.87;;;10.10;87.70;;;;;;10902753;32;20381;-75
2022/12/26 02:37:23;;;;;;;38.97;29.05;;;10.10;87.60;;;;;;10906542;32;20058;-75
2022/12/26 02:43:34;;;;;;;26.10;21.23;;;10.10;87.60;;;;;;10904563;32;20053;-75
2022/12/26 03:22:44;;;;;;;24.23;19.15;;;10.10;87.60;;;;;;10904935;32;20015;-75
2022/12/26 03:28:47;;;;;;;29.37;22.87;;;10.10;87.60;;;;;;10891138;32;20431;-75
2022/12/26 03:34:50;;;;;;;29.77;23.55;;;10.10;87.60;;;;;;10904572;32;20057;-75
2022/12/26 04:20:21;;;;;;;24.80;20.90;;;9.90;87.80;;;;;;10788731;33;20379;-75
2022/12/26 04:45:55;;;;;;;23.25;20.10;;;9.60;87.80;;;;;;10910384;32;20027;-75
2022/12/26 04:51:59;;;;;;;30.12;23.42;;;9.60;87.90;;;;;;10910152;32;20015;-75
2022/12/26 04:58:01;;;;;;;28.17;21.25;;;9.60;87.80;;;;;;10896471;32;20093;-75
2022/12/26 05:10:26;;;;;;;31.45;24.83;;;9.60;87.90;;;;;;10896045;32;20023;-75
2022/12/26 05:29:10;;;;;;;28.12;21.45;;;9.60;87.90;;;;;;10908822;32;20333;-75
2022/12/26 05:35:12;;;;;;;24.23;19.33;;;9.60;87.80;;;;;;10903570;32;20016;-75
2022/12/26 05:41:15;;;;;;;28.35;23.35;;;9.60;87.80;;;;;;10908576;32;20337;-75
2022/12/26 05:47:17;;;;;;;22.92;19.98;;;9.60;87.80;;;;;;10904136;32;20042;-75
2022/12/26 05:53:19;;;;;;;28.48;23.33;;;9.60;87.90;;;;;;10903991;32;20019;-75
2022/12/26 05:59:21;;;;;;;35.22;29.45;;;9.60;88.00;;;;;;10907868;32;20019;-75
2022/12/26 06:05:23;;;;;;;26.33;22.30;;;9.50;87.90;;;;;;10907647;32;20023;-75
2022/12/26 06:11:25;;;;;;;25.58;21.37;;;9.50;88.00;;;;;;10907573;32;20012;-75
2022/12/26 06:17:28;;;;;;;19.98;17.85;;;9.50;87.90;;;;;;10906351;32;20019;-75
2022/12/26 06:23:30;;;;;;;18.10;14.38;;;9.50;88.00;;;;;;10902945;32;20012;-75
2022/12/26 06:29:32;;;;;;;29.02;22.62;;;9.60;87.90;;;;;;10906562;32;20050;-75
2022/12/26 06:35:34;;;;;;;20.20;17.50;;;9.90;87.90;;;;;;10906525;32;20408;-75
2022/12/26 06:41:36;;;;;;;20.80;17.42;;;10.00;87.70;;;;;;10905513;32;20299;-75
2022/12/26 06:47:38;;;;;;;25.40;21.58;;;10.10;87.70;;;;;;10892050;32;20058;-75
2022/12/26 06:53:41;;;;;;;25.35;22.60;;;10.20;87.60;;;;;;10906458;32;20093;-75
2022/12/26 06:59:43;;;;;;;24.55;20.25;;;10.20;87.70;;;;;;10905819;32;20016;-75
2022/12/26 07:05:45;;;;;;;31.75;25.05;;;10.30;87.80;;;;;;10905680;32;20019;-73
2022/12/26 07:11:49;;;;;;;22.00;19.67;;;10.40;87.70;;;;;;10905421;32;20016;-73
2022/12/26 07:17:51;;;;;;;24.23;20.40;;;10.40;87.80;;;;;;10891633;32;20067;-73
2022/12/26 07:23:54;;;;;;;18.05;15.70;;;10.40;87.70;;;;;;10901626;32;20020;-73
2022/12/26 07:29:56;;;;;;;18.85;16.50;;;10.30;87.70;;;;;;10904622;32;20027;-73
2022/12/26 07:36:03;;;;;;;25.20;19.27;;;10.30;87.60;;;;;;10891016;32;20058;-73
2022/12/26 07:42:06;;;;;;;23.08;18.80;;;10.20;87.80;;;;;;10904419;32;20019;-73
2022/12/26 07:48:08;;;;;;;25.83;18.90;;;10.40;87.90;;;;;;10903984;32;20037;-73
2022/12/26 07:54:12;;;;;;;21.02;16.52;;;10.50;87.90;;;;;;10903482;32;20080;-73
2022/12/26 08:00:14;;;;;;;22.02;18.30;;;10.60;87.70;;;;;;10902321;32;20038;-73
2022/12/26 08:06:17;;;;;;;19.80;17.05;;;10.60;87.90;;;;;;10904088;32;20098;-72
2022/12/26 08:12:20;;;;;;;20.55;17.73;;;10.70;88.10;;;;;;10900910;32;20019;-73
2022/12/26 08:18:24;;;;;;;25.60;19.90;;;10.70;88.20;;;;;;10903714;32;20028;-73
2022/12/26 08:24:26;;;;;;;19.90;14.20;;;10.80;88.20;;;;;;10907182;27;20322;-73
2022/12/26 08:30:28;;;;;;;27.85;22.55;;;10.80;88.10;;;;;;10903591;32;20024;-73
2022/12/26 08:36:30;;;;;;;24.27;19.92;;;10.90;88.30;;;;;;10889708;32;20093;-73
2022/12/26 08:42:32;;;;;;;19.67;17.45;;;10.90;88.30;;;;;;10855403;32;20054;-73
2022/12/26 08:48:36;;;;;;;20.40;16.80;;;10.90;88.40;;;;;;10862964;32;20032;-73
2022/12/26 08:54:38;;;;;;;28.33;21.30;;;11.00;88.30;;;;;;10865807;32;20406;-73
2022/12/26 09:00:40;;;;;;;26.23;21.80;;;11.10;88.30;;;;;;10865750;32;20020;-73
2022/12/26 09:06:42;;;;;;;24.37;20.83;;;11.20;88.40;;;;;;10863877;32;20028;-73
2022/12/26 09:12:44;;;;;;;25.20;20.75;;;11.10;88.40;;;;;;10871559;32;20027;-73
2022/12/26 09:18:51;;;;;;;32.17;26.40;;;11.10;88.60;;;;;;10871894;32;20011;-73
2022/12/26 09:24:53;;;;;;;22.27;18.25;;;11.10;88.80;;;;;;10883025;32;20074;-73
2022/12/26 09:31:00;;;;;;;21.48;18.80;;;11.20;88.90;;;;;;10871502;32;20020;-73
2022/12/26 09:37:02;;;;;;;30.23;26.20;;;11.10;88.80;;;;;;10871354;32;20081;-73
2022/12/26 09:43:26;;;;;;;24.55;21.27;;;11.20;89.10;;;;;;10871158;32;20047;-73
2022/12/26 09:49:41;;;;;;;24.08;19.80;;;11.20;89.00;;;;;;10870825;32;20031;-73
2022/12/26 09:55:55;;;;;;;31.45;22.35;;;11.30;89.10;;;;;;10870823;32;20428;-73
2022/12/26 10:01:57;;;;;;;28.10;21.98;;;11.40;88.90;;;;;;10856953;32;20071;-73
2022/12/26 10:08:21;;;;;;;26.95;21.75;;;11.30;89.10;;;;;;10870213;32;20046;-73
2022/12/26 10:14:45;;;;;;;30.75;23.02;;;11.30;89.10;;;;;;10870091;32;20032;-73
2022/12/26 10:21:19;;;;;;;33.85;27.67;;;11.40;89.30;;;;;;10869463;32;20019;-75
2022/12/26 10:27:23;;;;;;;27.55;20.75;;;11.50;89.20;;;;;;10792677;33;20028;-75
2022/12/26 10:33:36;;;;;;;22.27;19.80;;;11.60;89.00;;;;;;10787521;33;20024;-75
2022/12/26 10:39:44;;;;;;;30.05;25.23;;;11.60;89.20;;;;;;10778006;33;20051;-75
2022/12/26 10:45:51;;;;;;;40.55;32.65;;;11.70;89.40;;;;;;10791368;33;20037;-75
2022/12/26 10:51:57;;;;;;;36.28;28.75;;;11.80;89.30;;;;;;10778921;33;20040;-75
2022/12/26 10:58:25;;;;;;;32.42;25.80;;;11.90;89.30;;;;;;10791372;33;20016;-75
2022/12/26 11:04:28;;;;;;;31.40;24.17;;;12.00;89.20;;;;;;10866952;32;20019;-74
2022/12/26 11:10:30;;;;;;;31.87;23.15;;;12.00;89.20;;;;;;10905207;32;20027;-75
2022/12/26 11:16:39;;;;;;;51.25;35.00;;;11.80;89.10;;;;;;10879052;32;20062;-75
2022/12/26 11:22:44;;;;;;;43.83;36.10;;;11.80;89.50;;;;;;10904739;32;20023;-74
2022/12/26 11:28:46;;;;;;;46.40;34.10;;;11.90;89.70;;;;;;10904085;32;20058;-74
2022/12/26 11:34:49;;;;;;;27.92;22.17;;;11.90;89.40;;;;;;10904157;32;20046;-75
2022/12/26 11:41:30;;;;;;;28.52;20.00;;;11.90;89.30;;;;;;10891000;32;20039;-75
2022/12/26 11:47:18;;;;;;;26.10;22.05;;;11.90;89.40;;;;;;10888731;32;20031;-75
2022/12/26 11:53:22;;;;;;;32.72;24.40;;;12.00;89.60;;;;;;10904327;32;20023;-75
2022/12/26 11:59:24;;;;;;;30.25;25.00;;;12.00;89.10;;;;;;10888531;32;20031;-75
2022/12/26 12:05:55;;;;;;;33.85;24.75;;;11.90;89.40;;;;;;10903531;32;20032;-75
2022/12/26 12:12:10;;;;;;;23.67;17.95;;;11.90;89.40;;;;;;10899615;32;20342;-75
2022/12/26 12:18:22;;;;;;;27.58;22.65;;;11.80;89.40;;;;;;10903809;32;20074;-75
2022/12/26 12:25:03;;;;;;;27.37;20.85;;;11.90;89.80;;;;;;10889924;32;20035;-75
2022/12/26 12:31:39;;;;;;;35.25;26.67;;;11.90;89.50;;;;;;10749038;33;20037;-75
2022/12/26 12:37:55;;;;;;;31.10;24.12;;;12.00;89.60;;;;;;10747658;33;20059;-75
2022/12/26 12:44:06;;;;;;;27.27;20.40;;;12.10;89.50;;;;;;10753527;33;20024;-75
2022/12/26 12:50:11;;;;;;;38.17;27.10;;;12.20;89.70;;;;;;10742838;33;20378;-75
2022/12/26 12:56:31;;;;;;;48.33;36.63;;;12.20;89.70;;;;;;10757258;33;20029;-75
2022/12/26 13:02:56;;;;;;;28.52;25.27;;;12.20;89.60;;;;;;10759076;33;20029;-75
2022/12/26 13:09:03;;;;;;;23.98;20.30;;;12.20;89.90;;;;;;10899530;32;20106;-75
2022/12/26 13:15:14;;;;;;;25.55;20.98;;;12.20;90.00;;;;;;10909455;32;20027;-75
2022/12/26 13:21:19;;;;;;;27.42;22.98;;;12.30;89.90;;;;;;10909357;32;20200;-75
2022/12/26 13:27:26;;;;;;;29.77;21.75;;;12.30;89.60;;;;;;10893976;32;20539;-74
2022/12/26 13:33:35;;;;;;;38.05;28.00;;;12.20;89.90;;;;;;10891779;32;20023;-74
2022/12/26 13:39:39;;;;;;;19.92;16.48;;;12.30;90.00;;;;;;10906991;32;20027;-74
2022/12/26 13:45:41;;;;;;;21.23;18.08;;;12.30;89.70;;;;;;10908157;32;20015;-74
2022/12/26 13:51:49;;;;;;;26.92;19.85;;;12.20;89.80;;;;;;10908041;32;20027;-74
2022/12/26 13:58:35;;;;;;;23.27;18.27;;;12.10;90.00;;;;;;10893620;32;20035;-74
2022/12/26 14:04:58;;;;;;;26.90;17.02;;;12.20;90.10;;;;;;10807660;32;20048;-72
2022/12/26 14:11:41;;;;;;;19.55;14.60;;;12.20;89.80;;;;;;10789139;33;20028;-72
2022/12/26 14:18:11;;;;;;;22.05;15.93;;;12.00;89.80;;;;;;10791989;33;20040;-72
2022/12/26 14:24:35;;;;;;;22.13;15.57;;;11.90;90.10;;;;;;10790293;33;20354;-72
2022/12/26 14:31:07;;;;;;;25.05;18.83;;;12.00;90.10;;;;;;10791947;32;20391;-73
2022/12/26 14:37:33;;;;;;;17.37;13.77;;;12.00;90.10;;;;;;10803727;32;20032;-73
2022/12/26 14:43:40;;;;;;;25.40;18.60;;;12.00;89.90;;;;;;10869038;32;20019;-72
2022/12/26 14:49:42;;;;;;;31.75;21.92;;;11.80;89.90;;;;;;10865113;32;20070;-72
2022/12/26 14:55:49;;;;;;;24.83;19.45;;;11.80;90.10;;;;;;10868584;32;20102;-73
2022/12/26 15:02:32;;;;;;;30.12;23.42;;;11.80;90.00;;;;;;10865758;32;20023;-72
2022/12/26 15:09:03;;;;;;;23.38;19.73;;;11.70;89.90;;;;;;10789412;33;20039;-72
2022/12/26 15:15:20;;;;;;;31.70;24.77;;;11.70;90.00;;;;;;10789118;33;20633;-72
2022/12/26 15:21:59;;;;;;;25.27;19.52;;;11.70;89.90;;;;;;10789073;33;20071;-72
2022/12/26 15:28:16;;;;;;;24.85;19.92;;;11.70;90.00;;;;;;10789183;33;20047;-73
2022/12/26 15:34:36;;;;;;;24.25;18.92;;;11.70;90.00;;;;;;10784711;33;20032;-73
2022/12/26 15:41:02;;;;;;;21.67;15.40;;;11.60;90.00;;;;;;10866217;32;20058;-74
2022/12/26 15:47:31;;;;;;;27.73;21.40;;;11.70;89.90;;;;;;10866504;32;20024;-74
2022/12/26 15:53:39;;;;;;;23.37;20.90;;;11.70;89.90;;;;;;10853617;32;20024;-74
2022/12/26 16:00:02;;;;;;;26.33;20.55;;;11.70;89.90;;;;;;10866355;32;20108;-74
2022/12/26 16:06:22;;;;;;;30.02;23.02;;;11.70;89.80;;;;;;10884317;32;20048;-74
2022/12/26 16:12:31;;;;;;;26.62;18.40;;;11.70;89.80;;;;;;10897872;32;20405;-74
2022/12/26 16:18:33;;;;;;;18.67;14.37;;;11.60;89.80;;;;;;10903987;32;20452;-74
2022/12/26 16:24:37;;;;;;;26.12;19.83;;;11.50;89.80;;;;;;10922786;27;20405;-74
2022/12/26 16:30:39;;;;;;;22.67;18.87;;;11.50;89.90;;;;;;10946997;32;20030;-74
2022/12/26 16:36:42;;;;;;;30.23;24.58;;;11.50;89.90;;;;;;10915803;32;20031;-74
2022/12/26 16:43:17;;;;;;;33.25;27.30;;;11.60;89.90;;;;;;10948045;32;20023;-74
2022/12/26 16:49:23;;;;;;;27.87;23.08;;;11.70;89.80;;;;;;10782129;33;20453;-74
2022/12/26 16:55:35;;;;;;;37.88;31.85;;;11.70;89.70;;;;;;10791516;32;20398;-73
2022/12/26 17:01:38;;;;;;;29.75;23.85;;;11.70;89.60;;;;;;10792991;32;20028;-72
2022/12/26 17:07:45;;;;;;;24.98;19.85;;;11.80;89.50;;;;;;10793933;33;20055;-73
2022/12/26 17:13:52;;;;;;;27.50;24.20;;;11.60;89.40;;;;;;10783238;33;20370;-72
2022/12/26 17:19:57;;;;;;;26.90;21.60;;;11.70;89.60;;;;;;10795111;33;20040;-73
2022/12/26 17:26:19;;;;;;;33.22;25.62;;;11.60;89.50;;;;;;10925373;32;20027;-72
2022/12/26 17:32:32;;;;;;;37.55;28.77;;;11.50;89.60;;;;;;10946647;32;20049;-73
2022/12/26 17:38:34;;;;;;;25.73;21.30;;;11.70;89.60;;;;;;10930089;32;20035;-72
2022/12/26 17:44:45;;;;;;;31.30;25.00;;;11.70;89.30;;;;;;10946317;32;20031;-73
2022/12/26 17:50:52;;;;;;;34.80;29.20;;;11.50;89.40;;;;;;10943086;32;20023;-74
2022/12/26 17:56:54;;;;;;;26.52;22.33;;;11.60;89.50;;;;;;10946614;32;20031;-74
2022/12/26 18:02:56;;;;;;;24.87;20.37;;;11.60;89.30;;;;;;10927539;32;20392;-72
2022/12/26 18:08:59;;;;;;;28.95;21.48;;;11.50;89.30;;;;;;10919193;32;20039;-74
2022/12/26 18:15:06;;;;;;;20.30;17.62;;;11.50;89.40;;;;;;10931507;32;20392;-75
2022/12/26 18:21:10;;;;;;;22.60;18.15;;;11.30;89.40;;;;;;10931364;32;20042;-74
2022/12/26 18:27:32;;;;;;;25.60;20.73;;;11.30;89.50;;;;;;10930935;32;20035;-75
2022/12/26 18:33:34;;;;;;;19.85;16.65;;;11.30;89.50;;;;;;10944694;32;20023;-75
2022/12/26 18:39:36;;;;;;;24.12;20.00;;;11.30;89.50;;;;;;10940154;32;20037;-75
2022/12/26 18:45:39;;;;;;;24.12;20.60;;;11.30;89.50;;;;;;10943552;32;20057;-75
2022/12/26 18:51:41;;;;;;;26.58;21.35;;;11.20;89.60;;;;;;10943543;32;20034;-75
2022/12/26 18:57:43;;;;;;;35.17;24.80;;;11.30;89.60;;;;;;10943701;32;20073;-75
2022/12/26 19:03:46;;;;;;;28.58;23.73;;;11.30;89.50;;;;;;10940582;32;20345;-75
2022/12/26 19:09:53;;;;;;;53.15;36.47;;;11.40;89.60;;;;;;10926451;32;20019;-75
2022/12/26 19:15:55;;;;;;;35.85;27.85;;;11.60;89.50;;;;;;10942906;32;20050;-75
2022/12/26 19:21:57;;;;;;;36.53;26.08;;;11.60;89.20;;;;;;10942808;32;20050;-75
2022/12/26 19:28:00;;;;;;;33.17;26.67;;;11.60;89.20;;;;;;10924619;32;20027;-75
2022/12/26 19:34:02;;;;;;;30.02;23.73;;;11.70;89.20;;;;;;10942501;32;20037;-75
2022/12/26 19:40:05;;;;;;;28.17;22.48;;;11.60;89.00;;;;;;10911791;32;20031;-75
2022/12/26 19:46:15;;;;;;;39.33;29.83;;;11.30;89.20;;;;;;10942145;32;20014;-75
2022/12/26 19:52:18;;;;;;;31.50;25.83;;;11.30;89.40;;;;;;10941389;32;20046;-75
2022/12/26 19:58:20;;;;;;;39.47;31.17;;;11.30;89.40;;;;;;10937723;32;20023;-75
2022/12/26 20:04:22;;;;;;;44.63;30.58;;;11.50;89.40;;;;;;10941790;32;20023;-75
2022/12/26 20:10:24;;;;;;;38.85;28.77;;;11.50;89.20;;;;;;10941926;32;20027;-75
2022/12/26 20:16:27;;;;;;;33.03;26.33;;;11.50;89.20;;;;;;10941560;32;20309;-75
2022/12/26 20:22:29;;;;;;;38.10;28.67;;;11.50;89.10;;;;;;10940788;32;20062;-75
2022/12/26 20:28:32;;;;;;;42.35;32.08;;;11.40;89.20;;;;;;10899141;32;20062;-76
2022/12/26 20:34:35;;;;;;;33.55;27.10;;;11.40;89.30;;;;;;10903332;32;20024;-75
2022/12/26 20:40:37;;;;;;;34.60;28.62;;;11.50;89.20;;;;;;10903238;32;20042;-75
2022/12/26 20:46:40;;;;;;;33.92;28.08;;;11.60;89.20;;;;;;10903053;32;20027;-75
2022/12/26 20:52:43;;;;;;;39.50;28.70;;;11.60;89.20;;;;;;10902983;32;20146;-75
2022/12/26 20:58:46;;;;;;;32.33;26.20;;;11.50;89.00;;;;;;10901930;32;20445;-75
2022/12/26 21:04:49;;;;;;;37.47;30.67;;;11.40;89.10;;;;;;10916021;32;20390;-75
2022/12/26 21:10:51;;;;;;;35.35;26.83;;;11.40;89.20;;;;;;10909714;32;20050;-75
2022/12/26 21:16:56;;;;;;;52.65;40.28;;;11.40;89.20;;;;;;10896196;32;20074;-75
2022/12/26 21:22:59;;;;;;;46.33;37.45;;;11.50;89.10;;;;;;10911163;32;20105;-74
2022/12/26 21:29:05;;;;;;;36.13;31.58;;;11.60;89.00;;;;;;10946721;32;20023;-75
2022/12/26 21:35:07;;;;;;;32.50;27.80;;;11.60;89.00;;;;;;10946767;32;20045;-75
2022/12/26 21:41:11;;;;;;;36.05;26.73;;;11.50;88.80;;;;;;10946620;32;20015;-75
2022/12/26 21:47:13;;;;;;;38.83;29.33;;;11.40;88.90;;;;;;10946304;32;20057;-75
2022/12/26 21:53:15;;;;;;;35.15;29.27;;;11.40;89.10;;;;;;10946098;32;20053;-75
2022/12/26 22:05:39;;;;;;;33.90;26.67;;;11.50;88.90;;;;;;10945830;32;20042;-74
2022/12/26 22:18:03;;;;;;;44.28;34.40;;;11.30;89.00;;;;;;10930682;32;20030;-74
2022/12/26 22:24:05;;;;;;;47.35;40.95;;;11.40;89.30;;;;;;10931080;32;20095;-74
2022/12/26 22:30:07;;;;;;;36.03;28.40;;;11.40;89.10;;;;;;10929703;32;20034;-73
2022/12/26 22:36:10;;;;;;;31.95;25.48;;;11.40;89.00;;;;;;10931188;32;20386;-73
2022/12/26 22:42:11;;;;;;;32.92;28.42;;;11.30;89.10;;;;;;10944494;32;20042;-73
2022/12/26 22:48:13;;;;;;;38.88;31.70;;;11.20;89.00;;;;;;10944014;32;20072;-74
2022/12/26 22:54:15;;;;;;;41.17;35.38;;;11.30;89.10;;;;;;10930283;32;20298;-74
2022/12/26 23:00:17;;;;;;;34.55;28.30;;;11.30;89.00;;;;;;10939529;32;20401;-73
2022/12/26 23:06:24;;;;;;;36.67;29.00;;;11.30;89.00;;;;;;10942293;32;20053;-74
2022/12/26 23:12:42;;;;;;;35.97;27.95;;;11.40;88.90;;;;;;10943907;32;20015;-73
2022/12/26 23:25:11;;;;;;;35.33;30.52;;;11.30;89.00;;;;;;10942860;32;20023;-73
2022/12/26 23:31:14;;;;;;;42.90;33.85;;;11.40;89.10;;;;;;10942456;32;20076;-73
2022/12/26 23:37:19;;;;;;;34.63;28.23;;;11.40;89.00;;;;;;10942556;32;20323;-74
2022/12/26 23:43:21;;;;;;;31.80;27.60;;;11.40;89.10;;;;;;10942189;32;20031;-73
2022/12/26 23:49:23;;;;;;;32.45;27.20;;;11.30;89.00;;;;;;10942173;32;20055;-73
2022/12/26 23:55:25;;;;;;;31.77;22.98;;;11.30;89.10;;;;;;10942113;32;20041;-73
